Time;durP1;ratioP1;P1;durP2;ratioP2;P2;SDS_P1;SDS_P2;PMS_P1;PMS_P2;Temp;Humidity;BMP_temperature;BMP_pressure;BME280_temperature;BME280_humidity;BME280_pressure;Samples;Min_cycle;Max_cycle;Signal;HPM_P1;HPM_P2
2023/11/08 00:00:40;;;;;;;;;;;;;;;21.11;60.93;100928.41;7393979;19;1782;-38
2023/11/08 00:03:08;;;;;;;;;;;;;;;21.11;60.74;100923.91;7394540;19;1674;-38
2023/11/08 00:05:36;;;;;;;;;;;;;;;21.16;60.95;100923.44;7394810;19;1445;-38
2023/11/08 00:08:06;;;;;;;;;;;;;;;21.12;60.65;100920.19;7395473;19;1678;-38
2023/11/08 00:10:35;;;;;;;;;;;;;;;21.13;60.70;100929.97;7397039;19;1344;-38
2023/11/08 00:13:04;;;;;;;;;;;;;;;21.09;60.89;100914.25;7394682;19;1874;-38
2023/11/08 00:15:35;;;;;;;;;;;;;;;21.04;60.71;100907.47;7394561;19;1544;-38
2023/11/08 00:18:05;;;;;;;;;;;;;;;21.11;61.04;100901.50;7393943;19;1463;-38
2023/11/08 00:20:33;;;;;;;;;;;;;;;21.06;60.56;100881.28;7394691;19;1558;-39
2023/11/08 00:23:02;;;;;;;;;;;;;;;21.10;60.75;100897.16;7393797;19;1470;-38
2023/11/08 00:25:30;;;;;;;;;;;;;;;21.10;60.52;100878.31;7392599;19;1912;-38
2023/11/08 00:27:59;;;;;;;;;;;;;;;21.09;60.63;100865.84;7393605;19;1443;-43
2023/11/08 00:30:27;;;;;;;;;;;;;;;21.08;60.88;100869.56;7391862;19;1854;-43
2023/11/08 00:32:58;;;;;;;;;;;;;;;21.10;60.95;100862.19;7395276;19;1389;-43
2023/11/08 00:35:26;;;;;;;;;;;;;;;21.11;60.82;100847.72;7394735;19;1531;-43
2023/11/08 00:37:54;;;;;;;;;;;;;;;21.10;60.65;100838.00;7393379;19;1913;-43
2023/11/08 00:40:23;;;;;;;;;;;;;;;21.10;60.23;100840.69;7393326;19;1537;-43
2023/11/08 00:42:51;;;;;;;;;;;;;;;21.11;60.69;100836.97;7392573;19;1507;-43
2023/11/08 00:45:20;;;;;;;;;;;;;;;21.05;60.87;100827.69;7393540;19;1458;-43
2023/11/08 00:47:50;;;;;;;;;;;;;;;21.00;61.08;100814.66;7393342;19;1377;-43
2023/11/08 00:50:21;;;;;;;;;;;;;;;21.03;60.70;100814.38;7390366;19;1969;-42
2023/11/08 00:52:52;;;;;;;;;;;;;;;21.06;60.78;100826.69;7376451;19;2290;-41
2023/11/08 00:55:20;;;;;;;;;;;;;;;21.00;60.94;100822.72;7394190;19;1329;-42
2023/11/08 00:57:48;;;;;;;;;;;;;;;21.02;61.06;100818.06;7392767;19;1460;-42
2023/11/08 01:00:17;;;;;;;;;;;;;;;21.01;60.47;100827.13;7392651;19;1464;-42
2023/11/08 01:02:46;;;;;;;;;;;;;;;21.02;60.54;100812.66;7392379;19;1945;-43
2023/11/08 01:05:15;;;;;;;;;;;;;;;21.03;60.99;100809.00;7393094;19;1719;-42
2023/11/08 01:07:46;;;;;;;;;;;;;;;21.00;60.78;100803.06;7393353;19;1412;-42
2023/11/08 01:10:16;;;;;;;;;;;;;;;21.01;61.01;100792.19;7390039;19;1827;-46
2023/11/08 01:12:44;;;;;;;;;;;;;;;21.01;60.61;100786.81;7392455;19;1451;-42
2023/11/08 01:15:13;;;;;;;;;;;;;;;21.03;60.68;100781.28;7391275;19;1656;-42
2023/11/08 01:17:41;;;;;;;;;;;;;;;21.01;60.39;100784.09;7392782;19;1427;-42
2023/11/08 01:20:10;;;;;;;;;;;;;;;21.03;60.57;100782.13;7392531;19;1765;-45
2023/11/08 01:22:38;;;;;;;;;;;;;;;21.01;60.47;100781.41;7391950;19;1670;-43
2023/11/08 01:25:12;;;;;;;;;;;;;;;21.02;60.44;100780.41;7389179;19;1726;-42
2023/11/08 01:27:41;;;;;;;;;;;;;;;20.96;60.87;100775.63;7392868;19;1444;-42
2023/11/08 01:30:10;;;;;;;;;;;;;;;20.97;60.76;100744.22;7390514;19;1846;-42
2023/11/08 01:32:38;;;;;;;;;;;;;;;20.95;60.42;100741.69;7392839;19;1386;-42
2023/11/08 01:35:07;;;;;;;;;;;;;;;20.93;60.59;100727.56;7391278;19;1915;-42
2023/11/08 01:37:36;;;;;;;;;;;;;;;20.99;60.35;100743.09;7391676;19;1582;-42
2023/11/08 01:40:06;;;;;;;;;;;;;;;20.99;60.60;100736.84;7392038;19;1531;-41
2023/11/08 01:42:37;;;;;;;;;;;;;;;21.00;60.49;100739.38;7392380;19;1417;-41
2023/11/08 01:45:05;;;;;;;;;;;;;;;21.02;60.12;100742.78;7391407;19;1560;-43
2023/11/08 01:47:35;;;;;;;;;;;;;;;21.01;60.23;100724.97;7392691;19;1443;-43
2023/11/08 01:50:04;;;;;;;;;;;;;;;21.04;60.25;100705.81;7390313;19;1844;-42
2023/11/08 01:52:32;;;;;;;;;;;;;;;21.01;60.42;100703.47;7392343;19;1522;-43
2023/11/08 01:55:01;;;;;;;;;;;;;;;21.00;60.18;100701.75;7376418;19;1459;-43
2023/11/08 01:57:29;;;;;;;;;;;;;;;20.96;60.17;100694.97;7391671;19;1400;-42
2023/11/08 02:00:00;;;;;;;;;;;;;;;20.97;60.15;100698.50;7391417;19;1662;-42
2023/11/08 02:02:29;;;;;;;;;;;;;;;20.94;60.12;100702.34;7391796;19;1531;-42
2023/11/08 02:04:57;;;;;;;;;;;;;;;20.91;60.27;100688.34;7389306;19;1926;-43
2023/11/08 02:07:25;;;;;;;;;;;;;;;20.93;60.62;100695.31;7390934;19;1542;-43
2023/11/08 02:09:54;;;;;;;;;;;;;;;20.95;60.53;100692.44;7388850;19;1866;-42
2023/11/08 02:12:23;;;;;;;;;;;;;;;20.97;60.44;100687.75;7391133;19;1432;-42
2023/11/08 02:15:07;;;;;;;;;;;;;;;20.93;60.35;100675.63;7389440;19;1435;-42
2023/11/08 02:17:35;;;;;;;;;;;;;;;20.84;60.75;100658.56;7390903;19;1431;-42
2023/11/08 02:20:06;;;;;;;;;;;;;;;20.91;60.62;100670.41;7390721;19;1742;-43
2023/11/08 02:22:35;;;;;;;;;;;;;;;20.95;60.22;100670.94;7387268;19;1452;-42
2023/11/08 02:25:06;;;;;;;;;;;;;;;20.96;60.27;100676.16;7388624;19;1560;-43
2023/11/08 02:27:35;;;;;;;;;;;;;;;20.93;60.48;100668.41;7399433;19;1448;-43
2023/11/08 02:30:03;;;;;;;;;;;;;;;20.92;60.70;100685.53;7397120;19;1852;-42
2023/11/08 02:32:35;;;;;;;;;;;;;;;20.95;60.46;100682.56;7399380;19;1416;-42
2023/11/08 02:35:03;;;;;;;;;;;;;;;20.96;60.75;100694.97;7398022;19;1746;-42
2023/11/08 02:37:32;;;;;;;;;;;;;;;20.97;60.66;100694.00;7398039;19;1558;-43
2023/11/08 02:40:00;;;;;;;;;;;;;;;21.01;60.08;100697.25;7397300;19;1501;-43
2023/11/08 02:42:31;;;;;;;;;;;;;;;20.98;60.64;100698.38;7397645;19;1482;-44
2023/11/08 02:45:00;;;;;;;;;;;;;;;20.95;60.24;100685.25;7395159;19;1387;-43
2023/11/08 02:47:28;;;;;;;;;;;;;;;20.97;60.76;100704.75;7398031;19;1515;-42
2023/11/08 02:49:58;;;;;;;;;;;;;;;21.00;60.42;100687.47;7395449;19;1849;-43
2023/11/08 02:52:26;;;;;;;;;;;;;;;20.95;60.32;100687.94;7397700;19;1672;-42
2023/11/08 02:54:54;;;;;;;;;;;;;;;20.95;60.47;100668.25;7382964;19;1543;-42
2023/11/08 02:57:23;;;;;;;;;;;;;;;20.95;60.66;100670.94;7397727;19;1505;-42
2023/11/08 02:59:54;;;;;;;;;;;;;;;20.94;60.37;100675.47;7397167;19;1567;-45
2023/11/08 03:02:22;;;;;;;;;;;;;;;20.92;60.55;100677.47;7397266;19;1290;-45
2023/11/08 03:04:51;;;;;;;;;;;;;;;21.10;60.44;100690.09;7395953;19;1459;-42
2023/11/08 03:07:20;;;;;;;;;;;;;;;21.54;59.61;100679.47;7396707;19;1599;-42
2023/11/08 03:09:48;;;;;;;;;;;;;;;21.78;58.73;100674.28;7395646;19;1854;-43
2023/11/08 03:12:19;;;;;;;;;;;;;;;21.90;58.58;100661.44;7394256;19;2513;-43
2023/11/08 03:14:47;;;;;;;;;;;;;;;22.09;58.06;100675.72;7396528;19;1558;-43
2023/11/08 03:17:18;;;;;;;;;;;;;;;22.15;57.60;100664.31;7396944;19;1445;-43
2023/11/08 03:19:46;;;;;;;;;;;;;;;22.23;57.45;100662.50;7395005;19;2422;-43
2023/11/08 03:22:15;;;;;;;;;;;;;;;22.35;57.30;100663.09;7397638;19;1527;-43
2023/11/08 03:24:45;;;;;;;;;;;;;;;22.40;57.41;100668.00;7396856;19;1459;-42
2023/11/08 03:27:14;;;;;;;;;;;;;;;22.40;57.39;100651.84;7393020;19;1888;-41
2023/11/08 03:29:42;;;;;;;;;;;;;;;22.30;57.35;100660.03;7395523;19;1858;-42
2023/11/08 03:32:10;;;;;;;;;;;;;;;22.26;57.90;100664.03;7396871;19;1679;-42
2023/11/08 03:34:41;;;;;;;;;;;;;;;22.23;57.79;100667.88;7395343;19;1499;-42
2023/11/08 03:37:10;;;;;;;;;;;;;;;22.28;57.46;100669.28;7394233;19;1758;-42
2023/11/08 03:39:38;;;;;;;;;;;;;;;22.28;57.57;100664.72;7395787;19;1427;-43
2023/11/08 03:42:07;;;;;;;;;;;;;;;22.32;57.57;100643.72;7394150;19;1508;-43
2023/11/08 03:44:35;;;;;;;;;;;;;;;22.35;57.74;100659.56;7396171;19;1408;-43
2023/11/08 03:47:04;;;;;;;;;;;;;;;22.38;57.27;100660.09;7395612;19;1749;-43
2023/11/08 03:49:34;;;;;;;;;;;;;;;22.33;57.72;100643.56;7396877;19;1854;-42
2023/11/08 03:52:05;;;;;;;;;;;;;;;22.25;57.65;100632.75;7395331;19;1646;-43
2023/11/08 03:54:34;;;;;;;;;;;;;;;22.26;57.70;100625.50;7380696;19;1545;-42
2023/11/08 03:57:03;;;;;;;;;;;;;;;22.06;58.22;100636.47;7394513;19;1741;-43
2023/11/08 03:59:31;;;;;;;;;;;;;;;21.70;58.59;100633.03;7395432;19;1487;-43
2023/11/08 04:01:59;;;;;;;;;;;;;;;21.67;58.61;100611.81;7394283;19;1527;-45
2023/11/08 04:04:27;;;;;;;;;;;;;;;22.00;58.01;100639.78;7395418;19;1559;-42
2023/11/08 04:06:56;;;;;;;;;;;;;;;21.89;58.01;100626.59;7394070;19;1456;-43
2023/11/08 04:09:27;;;;;;;;;;;;;;;21.72;58.73;100621.09;7395361;19;1483;-42
2023/11/08 04:11:56;;;;;;;;;;;;;;;21.65;58.58;100620.03;7394320;19;1408;-42
2023/11/08 04:14:24;;;;;;;;;;;;;;;21.54;58.75;100601.44;7394826;19;1898;-43
2023/11/08 04:16:53;;;;;;;;;;;;;;;21.43;58.86;100610.63;7395012;19;1477;-43
2023/11/08 04:19:22;;;;;;;;;;;;;;;21.35;59.28;100602.44;7394032;19;1869;-44
2023/11/08 04:21:50;;;;;;;;;;;;;;;21.32;59.48;100608.97;7393945;19;1507;-43
2023/11/08 04:24:19;;;;;;;;;;;;;;;21.28;59.71;100606.75;7394036;19;1539;-44
2023/11/08 04:26:51;;;;;;;;;;;;;;;21.30;59.48;100610.13;7394232;19;1491;-45
2023/11/08 04:29:20;;;;;;;;;;;;;;;21.26;59.43;100615.81;7395157;19;1526;-45
2023/11/08 04:31:49;;;;;;;;;;;;;;;21.20;59.47;100616.41;7392651;19;1852;-45
2023/11/08 04:34:18;;;;;;;;;;;;;;;21.20;59.32;100604.81;7392099;19;1481;-45
2023/11/08 04:36:47;;;;;;;;;;;;;;;21.29;59.43;100603.91;7392302;19;1653;-44
2023/11/08 04:39:16;;;;;;;;;;;;;;;21.31;59.26;100601.03;7393046;19;1505;-43
2023/11/08 04:41:44;;;;;;;;;;;;;;;21.56;58.52;100615.59;7392017;19;1507;-45
2023/11/08 04:44:15;;;;;;;;;;;;;;;21.58;58.70;100602.81;7390165;19;1617;-45
2023/11/08 04:46:44;;;;;;;;;;;;;;;21.58;58.53;100608.19;7391792;19;1727;-44
2023/11/08 04:49:13;;;;;;;;;;;;;;;21.39;59.52;100628.88;7390476;19;1545;-43
2023/11/08 04:51:41;;;;;;;;;;;;;;;21.62;58.66;100628.41;7390721;19;1852;-43
2023/11/08 04:54:10;;;;;;;;;;;;;;;21.68;58.83;100619.72;7378043;19;1627;-43
2023/11/08 04:56:38;;;;;;;;;;;;;;;21.67;58.78;100634.19;7391422;19;1425;-43
2023/11/08 04:59:11;;;;;;;;;;;;;;;21.38;59.28;100616.41;7392636;19;1689;-43
2023/11/08 05:01:43;;;;;;;;;;;;;;;21.10;59.96;100626.41;7391709;19;1322;-44
2023/11/08 05:04:12;;;;;;;;;;;;;;;21.38;59.01;100621.78;7391921;19;1583;-44
2023/11/08 05:06:40;;;;;;;;;;;;;;;21.52;58.45;100619.59;7391518;19;1421;-44
2023/11/08 05:09:09;;;;;;;;;;;;;;;21.39;58.92;100628.88;7392614;19;1617;-44
2023/11/08 05:11:37;;;;;;;;;;;;;;;21.28;59.34;100626.41;7388765;19;1871;-44
2023/11/08 05:14:07;;;;;;;;;;;;;;;21.28;59.25;100607.59;7392863;19;1380;-44
2023/11/08 05:16:35;;;;;;;;;;;;;;;21.28;58.74;100618.34;7393049;19;1472;-49
2023/11/08 05:19:08;;;;;;;;;;;;;;;21.27;59.12;100622.06;7390167;19;1459;-44
2023/11/08 05:21:36;;;;;;;;;;;;;;;21.40;59.06;100625.16;7383848;19;1541;-44
2023/11/08 05:24:05;;;;;;;;;;;;;;;21.44;58.92;100625.75;7387827;19;1458;-44
2023/11/08 05:26:33;;;;;;;;;;;;;;;21.34;59.05;100633.88;7385749;19;1931;-44
2023/11/08 05:29:01;;;;;;;;;;;;;;;21.31;58.77;100639.56;7390548;19;1175;-44
2023/11/08 05:31:33;;;;;;;;;;;;;;;21.22;59.19;100649.38;7386689;19;1900;-44
2023/11/08 05:34:02;;;;;;;;;;;;;;;21.33;59.23;100652.84;7387810;19;1384;-44
2023/11/08 05:36:34;;;;;;;;;;;;;;;21.35;58.59;100656.25;7392295;19;1416;-44
2023/11/08 05:39:02;;;;;;;;;;;;;;;21.29;58.74;100657.72;7393194;19;1559;-44
2023/11/08 05:41:30;;;;;;;;;;;;;;;21.28;59.21;100671.28;7392487;19;1760;-44
2023/11/08 05:43:59;;;;;;;;;;;;;;;21.20;59.66;100666.69;7393884;19;1536;-44
2023/11/08 05:46:27;;;;;;;;;;;;;;;21.35;59.52;100675.91;7391686;19;1998;-44
2023/11/08 05:48:57;;;;;;;;;;;;;;;21.15;59.80;100687.78;7391634;19;1587;-44
2023/11/08 05:51:27;;;;;;;;;;;;;;;21.30;60.08;100691.66;7388627;19;1842;-47
2023/11/08 05:53:58;;;;;;;;;;;;;;;21.08;60.66;100692.94;7393964;19;1456;-44
2023/11/08 05:56:26;;;;;;;;;;;;;;;21.15;60.31;100685.97;7392250;19;1621;-44
2023/11/08 05:58:55;;;;;;;;;;;;;;;21.08;60.37;100686.72;7393516;19;1540;-44
2023/11/08 06:13:44;;;;;;;;;;;;;;;20.59;50.23;100719.19;7263658;19;3123048;-37
2023/11/08 06:16:13;;;;;;;;;;;;;;;20.58;50.65;100728.22;7429679;19;1552;-37
2023/11/08 06:18:41;;;;;;;;;;;;;;;20.64;50.40;100733.88;7429522;19;1430;-37
2023/11/08 06:21:09;;;;;;;;;;;;;;;20.61;49.82;100752.13;7428057;19;1863;-37
2023/11/08 06:23:38;;;;;;;;;;;;;;;20.44;50.12;100772.53;7425834;19;1500;-37
2023/11/08 06:26:07;;;;;;;;;;;;;;;20.22;50.62;100797.88;7430156;19;1684;-37
2023/11/08 06:28:35;;;;;;;;;;;;;;;20.30;51.73;100813.25;7430533;19;1764;-37
2023/11/08 06:31:06;;;;;;;;;;;;;;;20.43;51.37;100856.78;7430719;19;1216;-37
2023/11/08 06:33:34;;;;;;;;;;;;;;;20.51;50.81;100830.03;7428897;19;1918;-37
2023/11/08 06:36:02;;;;;;;;;;;;;;;20.54;51.26;100847.72;7429531;19;1759;-37
2023/11/08 06:38:31;;;;;;;;;;;;;;;20.56;50.53;100857.34;7428384;19;1728;-37
2023/11/08 06:41:00;;;;;;;;;;;;;;;20.20;51.73;100869.66;7429127;19;1715;-37
2023/11/08 06:43:28;;;;;;;;;;;;;;;20.12;51.29;100874.88;7429227;19;1689;-37
2023/11/08 06:45:56;;;;;;;;;;;;;;;20.00;52.14;100872.31;7430533;19;1715;-37
2023/11/08 06:48:27;;;;;;;;;;;;;;;20.02;52.18;100874.88;7429698;19;2103;-37
2023/11/08 06:50:56;;;;;;;;;;;;;;;19.98;52.37;100862.72;7429050;19;1867;-38
2023/11/08 06:53:24;;;;;;;;;;;;;;;20.01;51.76;100863.25;7428721;19;1515;-37
2023/11/08 06:55:53;;;;;;;;;;;;;;;20.14;51.74;100838.00;7424197;19;1590;-40
2023/11/08 06:58:21;;;;;;;;;;;;;;;19.95;51.76;100842.34;7426913;19;1386;-40
2023/11/08 07:00:49;;;;;;;;;;;;;;;19.87;52.11;100836.84;7426192;19;1807;-41
2023/11/08 07:03:18;;;;;;;;;;;;;;;19.84;52.39;100837.13;7423670;19;1853;-40
2023/11/08 07:05:49;;;;;;;;;;;;;;;19.86;52.09;100844.06;7425696;19;1500;-40
2023/11/08 07:08:17;;;;;;;;;;;;;;;19.79;52.12;100804.50;7422847;19;1484;-40
2023/11/08 07:10:46;;;;;;;;;;;;;;;19.80;52.45;100812.41;7424535;19;1623;-40
2023/11/08 07:13:14;;;;;;;;;;;;;;;19.81;52.30;100805.19;7413496;19;1531;-40
2023/11/08 07:15:43;;;;;;;;;;;;;;;19.80;52.63;100792.78;7395945;19;1970;-40
2023/11/08 07:18:14;;;;;;;;;;;;;;;19.78;52.10;100805.50;7396705;19;1575;-40
2023/11/08 07:20:42;;;;;;;;;;;;;;;19.77;52.46;100804.63;7394096;19;1598;-41
2023/11/08 07:23:13;;;;;;;;;;;;;;;19.81;52.17;100827.50;7393297;19;1842;-41
2023/11/08 07:25:42;;;;;;;;;;;;;;;19.78;52.10;100802.81;7394200;19;1634;-41
2023/11/08 07:28:11;;;;;;;;;;;;;;;19.98;53.54;100787.56;7389803;19;1692;-38
2023/11/08 07:30:40;;;;;;;;;;;;;;;20.21;52.20;100780.91;7388333;19;1363;-38
2023/11/08 07:33:08;;;;;;;;;;;;;;;20.46;51.88;100757.09;7393418;19;1562;-38
2023/11/08 07:35:34;;;;;;;;;;;;;;;20.60;52.31;100763.88;7389949;19;1846;-38
2023/11/08 07:38:02;;;;;;;;;;;;;;;20.69;52.22;100770.22;7395640;19;1528;-38
2023/11/08 07:40:33;;;;;;;;;;;;;;;20.68;52.67;100780.13;7393948;19;1441;-38
2023/11/08 07:43:01;;;;;;;;;;;;;;;20.69;52.46;100791.72;7394537;19;1870;-38
2023/11/08 07:45:29;;;;;;;;;;;;;;;20.69;52.56;100784.53;7391736;19;1442;-38
2023/11/08 07:48:01;;;;;;;;;;;;;;;20.65;52.77;100778.59;7395296;19;1581;-38
2023/11/08 07:50:30;;;;;;;;;;;;;;;20.67;52.82;100773.03;7393904;19;1441;-38
2023/11/08 07:52:58;;;;;;;;;;;;;;;20.66;52.99;100791.00;7393796;19;1409;-38
2023/11/08 07:55:26;;;;;;;;;;;;;;;20.66;52.84;100790.16;7395049;19;1499;-38
2023/11/08 07:57:57;;;;;;;;;;;;;;;20.68;53.10;100809.69;7393741;19;1514;-38
2023/11/08 08:00:26;;;;;;;;;;;;;;;20.43;53.93;100795.00;7389296;19;1569;-38
2023/11/08 08:02:56;;;;;;;;;;;;;;;20.57;52.82;100793.69;7391520;19;1851;-38
2023/11/08 08:05:24;;;;;;;;;;;;;;;20.51;53.56;100808.53;7392818;19;1526;-38
2023/11/08 08:07:53;;;;;;;;;;;;;;;20.63;53.33;100799.38;7394663;19;1539;-38
2023/11/08 08:10:25;;;;;;;;;;;;;;;20.60;53.17;100802.34;7390940;19;1482;-38
2023/11/08 08:12:53;;;;;;;;;;;;;;;20.67;53.54;100818.72;7393896;19;1473;-38
2023/11/08 08:15:24;;;;;;;;;;;;;;;20.66;53.41;100791.00;7394833;19;1502;-38
2023/11/08 08:17:53;;;;;;;;;;;;;;;20.69;53.87;100800.66;7395562;19;1539;-38
2023/11/08 08:20:21;;;;;;;;;;;;;;;20.72;53.71;100796.81;7393567;19;1525;-38
2023/11/08 08:22:51;;;;;;;;;;;;;;;20.64;53.75;100810.97;7392832;19;1884;-38
2023/11/08 08:25:20;;;;;;;;;;;;;;;20.66;53.50;100800.91;7391172;19;1597;-38
2023/11/08 08:27:49;;;;;;;;;;;;;;;20.69;53.84;100805.16;7393844;19;1558;-38
2023/11/08 08:30:17;;;;;;;;;;;;;;;20.68;53.47;100803.47;7392859;19;1838;-38
2023/11/08 08:32:49;;;;;;;;;;;;;;;20.75;53.94;100818.00;7393609;19;1553;-38
2023/11/08 08:35:18;;;;;;;;;;;;;;;20.73;53.80;100802.03;7394030;19;1463;-38
2023/11/08 08:37:46;;;;;;;;;;;;;;;20.69;53.86;100799.78;7393980;19;1516;-38
2023/11/08 08:40:15;;;;;;;;;;;;;;;20.66;54.31;100801.75;7393646;19;1504;-38
2023/11/08 08:42:44;;;;;;;;;;;;;;;20.74;53.99;100801.03;7391338;19;1864;-38
2023/11/08 08:45:13;;;;;;;;;;;;;;;20.73;54.17;100795.81;7391369;19;1387;-38
2023/11/08 08:47:42;;;;;;;;;;;;;;;20.74;54.11;100792.97;7393832;19;1539;-38
2023/11/08 08:50:14;;;;;;;;;;;;;;;20.78;54.15;100793.53;7392981;19;1525;-38
2023/11/08 08:52:44;;;;;;;;;;;;;;;20.75;54.34;100800.06;7391915;19;1571;-38
2023/11/08 08:55:13;;;;;;;;;;;;;;;20.75;54.43;100775.00;7393527;19;1557;-38
2023/11/08 08:57:45;;;;;;;;;;;;;;;20.78;53.90;100777.41;7387683;19;1155;-38
2023/11/08 09:00:14;;;;;;;;;;;;;;;20.75;54.25;100786.63;7391617;19;1718;-38
2023/11/08 09:02:42;;;;;;;;;;;;;;;20.75;53.93;100788.44;7391857;19;1862;-38
2023/11/08 09:05:13;;;;;;;;;;;;;;;20.82;54.00;100808.38;7388568;19;1475;-37
2023/11/08 09:07:43;;;;;;;;;;;;;;;20.82;53.85;100806.53;7392119;19;1457;-38
2023/11/08 09:10:11;;;;;;;;;;;;;;;20.81;54.30;100795.91;7392085;19;1448;-38
2023/11/08 09:12:40;;;;;;;;;;;;;;;20.83;54.05;100801.97;7391979;19;1434;-38
2023/11/08 09:15:10;;;;;;;;;;;;;;;20.82;54.29;100811.06;7391916;19;1481;-38
2023/11/08 09:17:39;;;;;;;;;;;;;;;20.78;54.04;100798.91;7393692;19;1465;-38
2023/11/08 09:20:08;;;;;;;;;;;;;;;20.84;54.48;100798.31;7391713;19;1487;-38
2023/11/08 09:22:40;;;;;;;;;;;;;;;20.87;54.04;100792.66;7387749;19;1848;-38
2023/11/08 09:25:10;;;;;;;;;;;;;;;20.81;54.28;100786.03;7392569;19;1564;-38
2023/11/08 09:27:38;;;;;;;;;;;;;;;20.84;54.28;100799.16;7394017;19;1499;-38
2023/11/08 09:30:08;;;;;;;;;;;;;;;20.85;53.89;100790.13;7392487;19;1612;-38
2023/11/08 09:32:37;;;;;;;;;;;;;;;20.83;54.19;100781.34;7392284;19;1485;-38
2023/11/08 09:35:06;;;;;;;;;;;;;;;20.85;53.90;100775.84;7391640;19;1553;-38
2023/11/08 09:37:36;;;;;;;;;;;;;;;20.83;54.33;100800.16;7390185;19;1465;-38
2023/11/08 09:40:09;;;;;;;;;;;;;;;20.84;54.26;100798.31;7386540;19;1553;-38
2023/11/08 09:42:38;;;;;;;;;;;;;;;20.86;54.24;100812.47;7389460;19;1866;-38
2023/11/08 09:45:09;;;;;;;;;;;;;;;20.84;54.14;100814.44;7391070;19;1585;-38
2023/11/08 09:47:38;;;;;;;;;;;;;;;20.86;54.56;100805.22;7391962;19;1500;-38
2023/11/08 09:50:09;;;;;;;;;;;;;;;20.82;54.28;100813.75;7392108;19;1421;-49
2023/11/08 09:52:38;;;;;;;;;;;;;;;20.77;54.95;100808.81;7390771;19;1520;-38
2023/11/08 09:55:11;;;;;;;;;;;;;;;20.73;55.34;100817.28;7391364;19;1396;-37
2023/11/08 09:57:40;;;;;;;;;;;;;;;21.14;54.45;100832.16;7392929;19;981;-38
2023/11/08 10:00:10;;;;;;;;;;;;;;;21.77;53.36;100817.97;7391507;19;1627;-38
2023/11/08 10:02:40;;;;;;;;;;;;;;;22.28;51.96;100826.34;7390630;19;1851;-38
2023/11/08 10:05:09;;;;;;;;;;;;;;;22.67;51.21;100808.97;7390400;19;1486;-38
2023/11/08 10:07:39;;;;;;;;;;;;;;;22.84;51.24;100798.13;7391267;19;1461;-38
2023/11/08 10:10:10;;;;;;;;;;;;;;;22.26;52.22;100827.53;7390635;19;1544;-38
2023/11/08 10:12:39;;;;;;;;;;;;;;;21.65;53.55;100809.25;7387538;19;1496;-38
2023/11/08 10:15:08;;;;;;;;;;;;;;;21.26;54.21;100820.19;7389400;19;1673;-38
2023/11/08 10:17:36;;;;;;;;;;;;;;;21.14;54.89;100820.56;7390963;19;1375;-38
2023/11/08 10:20:08;;;;;;;;;;;;;;;21.21;54.59;100832.44;7387564;19;1470;-38
2023/11/08 10:22:37;;;;;;;;;;;;;;;21.09;55.41;100822.84;7389695;19;1853;-38
2023/11/08 10:25:08;;;;;;;;;;;;;;;21.17;55.46;100820.25;7389590;19;1444;-38
2023/11/08 10:27:39;;;;;;;;;;;;;;;21.08;55.64;100808.56;7389875;19;1433;-38
2023/11/08 10:30:18;;;;;;;;;;;;;;;21.10;55.62;100825.38;7389600;19;1464;-37
2023/11/08 10:32:47;;;;;;;;;;;;;;;21.21;55.50;100802.84;7389793;19;1490;-37
2023/11/08 10:35:19;;;;;;;;;;;;;;;21.35;55.40;100807.72;7389191;19;1481;-37
2023/11/08 10:37:48;;;;;;;;;;;;;;;21.26;55.99;100814.81;7388342;19;1354;-38
2023/11/08 10:40:17;;;;;;;;;;;;;;;21.12;56.64;100823.41;7387302;19;1665;-38
2023/11/08 10:42:55;;;;;;;;;;;;;;;20.99;57.10;100813.00;7384662;19;1868;-40
2023/11/08 10:45:24;;;;;;;;;;;;;;;20.50;57.44;100715.53;7387932;19;1410;-45
2023/11/08 10:47:52;;;;;;;;;;;;;;;21.15;57.49;100790.84;7388631;19;1443;-40
2023/11/08 10:50:21;;;;;;;;;;;;;;;21.22;57.19;100780.31;7394869;19;1521;-40
2023/11/08 10:52:49;;;;;;;;;;;;;;;21.14;57.80;100809.81;7395547;19;1355;-40
2023/11/08 10:55:22;;;;;;;;;;;;;;;21.16;57.21;100786.31;7394268;19;1419;-41
2023/11/08 10:57:54;;;;;;;;;;;;;;;21.32;56.87;100782.97;7395846;19;1370;-40
2023/11/08 11:00:24;;;;;;;;;;;;;;;21.38;56.58;100779.66;7396300;19;1490;-40
2023/11/08 11:02:55;;;;;;;;;;;;;;;21.49;56.64;100809.09;7396083;19;1864;-40
2023/11/08 11:05:24;;;;;;;;;;;;;;;21.65;56.01;100821.88;7396104;19;1490;-40
2023/11/08 11:07:54;;;;;;;;;;;;;;;21.61;55.76;100807.03;7395235;19;1501;-40
2023/11/08 11:10:23;;;;;;;;;;;;;;;21.62;56.25;100831.09;7395657;19;1504;-40
2023/11/08 11:13:02;;;;;;;;;;;;;;;21.51;56.15;100819.72;7391799;19;1548;-37
2023/11/08 11:15:37;;;;;;;;;;;;;;;21.33;56.39;100808.84;7395547;19;1601;-38
2023/11/08 11:18:06;;;;;;;;;;;;;;;21.36;56.80;100809.41;7392944;19;1559;-38
2023/11/08 11:20:37;;;;;;;;;;;;;;;21.18;57.13;100827.34;7394832;19;1568;-37
2023/11/08 11:23:26;;;;;;;;;;;;;;;21.14;57.54;100815.19;7394904;19;1873;-37
2023/11/08 11:25:55;;;;;;;;;;;;;;;20.95;58.06;100811.59;7396031;19;1770;-37
2023/11/08 11:28:38;;;;;;;;;;;;;;;21.01;57.81;100829.81;7397416;19;1576;-37
2023/11/08 11:31:21;;;;;;;;;;;;;;;21.11;57.25;100826.22;7396902;19;1240;-37
2023/11/08 11:33:53;;;;;;;;;;;;;;;21.21;56.90;100838.66;7395887;19;1313;-37
2023/11/08 11:36:21;;;;;;;;;;;;;;;21.05;57.16;100817.78;7394416;19;1056;-37
2023/11/08 11:39:10;;;;;;;;;;;;;;;21.13;57.53;100832.28;7394071;19;1561;-37
2023/11/08 11:41:38;;;;;;;;;;;;;;;21.16;57.30;100834.72;7394666;19;2082;-38
2023/11/08 11:44:10;;;;;;;;;;;;;;;20.91;57.90;100831.69;7392931;19;1851;-37
2023/11/08 11:46:39;;;;;;;;;;;;;;;20.83;57.95;100847.69;7395034;19;1501;-37
2023/11/08 11:49:14;;;;;;;;;;;;;;;20.87;57.84;100849.09;7391337;19;1735;-37
2023/11/08 11:51:43;;;;;;;;;;;;;;;20.83;58.15;100855.75;7392795;19;1493;-37
2023/11/08 11:54:14;;;;;;;;;;;;;;;20.77;58.52;100862.56;7391699;19;1526;-37
2023/11/08 11:56:43;;;;;;;;;;;;;;;20.73;58.33;100849.53;7392567;19;1670;-36
2023/11/08 11:59:12;;;;;;;;;;;;;;;20.84;58.17;100858.28;7392503;19;1426;-36
2023/11/08 12:16:18;;;;;;;;;;;;;;;-145.56;100.00;59612.91;7265621;19;3039443;-37
2023/11/08 12:18:47;;;;;;;;;;;;;;;-145.56;100.00;59612.91;7425651;19;1736;-36
2023/11/08 12:21:15;;;;;;;;;;;;;;;-145.56;100.00;59612.91;7424628;19;1816;-36
2023/11/08 12:23:44;;;;;;;;;;;;;;;-145.56;100.00;59612.91;7424723;19;1847;-36
2023/11/08 12:26:13;;;;;;;;;;;;;;;-145.56;100.00;59612.91;7424819;19;1650;-36
2023/11/08 12:28:43;;;;;;;;;;;;;;;-145.56;100.00;59612.91;7422167;19;1726;-36
2023/11/08 12:31:20;;;;;;;;;;;;;;;-145.56;100.00;59612.91;7428919;19;1441;-36
2023/11/08 12:33:49;;;;;;;;;;;;;;;-145.56;100.00;59612.91;7430935;19;1105;-36
2023/11/08 12:36:15;;;;;;;;;;;;;;;-145.56;100.00;59612.91;7429134;19;1791;-36
2023/11/08 12:38:43;;;;;;;;;;;;;;;-145.56;100.00;59612.91;7429644;19;1818;-36
2023/11/08 12:41:13;;;;;;;;;;;;;;;-145.56;100.00;59612.91;7429011;19;1730;-36
2023/11/08 12:43:41;;;;;;;;;;;;;;;-145.56;100.00;59612.91;7428822;19;1852;-36
2023/11/08 12:46:10;;;;;;;;;;;;;;;-145.56;100.00;59612.91;7430093;19;1829;-36
2023/11/08 12:48:41;;;;;;;;;;;;;;;-145.56;100.00;59612.91;7429108;19;1845;-36
2023/11/08 12:51:11;;;;;;;;;;;;;;;-145.56;100.00;59612.91;7429768;19;1826;-36
2023/11/08 12:53:40;;;;;;;;;;;;;;;-145.56;100.00;59612.91;7428256;19;1587;-36
2023/11/08 12:56:08;;;;;;;;;;;;;;;-145.56;100.00;59612.91;7428517;19;1536;-36
2023/11/08 12:58:37;;;;;;;;;;;;;;;-145.56;100.00;59612.91;7427909;19;1662;-37
2023/11/08 13:01:06;;;;;;;;;;;;;;;-145.56;100.00;59612.91;7428842;19;1497;-37
2023/11/08 13:03:41;;;;;;;;;;;;;;;-145.56;100.00;59612.91;7430143;19;1900;-37
2023/11/08 13:06:12;;;;;;;;;;;;;;;-145.56;100.00;59612.91;7428456;19;1564;-37
2023/11/08 13:08:41;;;;;;;;;;;;;;;-145.56;100.00;59612.91;7426616;19;1742;-37
2023/11/08 13:11:09;;;;;;;;;;;;;;;-145.56;100.00;59612.91;7426818;19;1593;-37
2023/11/08 13:13:38;;;;;;;;;;;;;;;-145.56;100.00;59612.91;7426901;19;1474;-37
2023/11/08 13:16:07;;;;;;;;;;;;;;;-145.56;100.00;59612.91;7412178;19;1402;-37
2023/11/08 13:18:35;;;;;;;;;;;;;;;-145.56;100.00;59612.91;7396575;19;1807;-36
2023/11/08 13:21:03;;;;;;;;;;;;;;;-145.56;100.00;59612.91;7399468;19;1500;-37
2023/11/08 13:23:34;;;;;;;;;;;;;;;-145.56;100.00;59612.91;7397693;19;1501;-37